Time;durP1;ratioP1;P1;durP2;ratioP2;P2;SDS_P1;SDS_P2;PMS_P1;PMS_P2;Temp;Humidity;BMP_temperature;BMP_pressure;BME280_temperature;BME280_humidity;BME280_pressure;Samples;Min_cycle;Max_cycle;Signal;HPM_P1;HPM_P2
2023/12/12 00:00:30;;;;;;;6.88;1.80;;;;;;;4.38;100.00;100906.25;5113926;28;20061;-80
2023/12/12 00:02:59;;;;;;;9.52;1.98;;;;;;;4.34;100.00;100902.09;5095853;28;20073;-80
2023/12/12 00:05:24;;;;;;;9.68;2.58;;;;;;;4.28;100.00;100901.66;5113408;28;20035;-79
2023/12/12 00:07:50;;;;;;;6.68;2.15;;;;;;;4.24;100.00;100891.31;5113299;28;20151;-78
2023/12/12 00:10:16;;;;;;;6.65;1.70;;;;;;;4.17;100.00;100895.28;5113226;28;20141;-80
2023/12/12 00:12:41;;;;;;;10.70;1.67;;;;;;;4.12;100.00;100883.34;5113315;28;20020;-80
2023/12/12 00:15:07;;;;;;;7.00;2.10;;;;;;;4.08;100.00;100887.13;5112735;28;20027;-80
2023/12/12 00:17:32;;;;;;;15.15;2.45;;;;;;;4.05;100.00;100883.72;5113958;28;20031;-79
2023/12/12 00:19:58;;;;;;;8.63;1.90;;;;;;;4.01;100.00;100887.50;5113313;28;20023;-80
2023/12/12 00:22:23;;;;;;;8.55;1.50;;;;;;;3.96;100.00;100880.84;5113019;28;20034;-80
2023/12/12 00:24:48;;;;;;;5.38;1.58;;;;;;;3.91;100.00;100882.91;5095008;28;20085;-80
2023/12/12 00:27:14;;;;;;;5.68;1.20;;;;;;;3.84;100.00;100888.53;5113243;28;20043;-80
2023/12/12 00:29:40;;;;;;;12.07;1.95;;;;;;;3.78;100.00;100890.72;5094752;28;20024;-79
2023/12/12 00:32:06;;;;;;;8.15;1.90;;;;;;;3.71;100.00;100887.59;5113789;28;20032;-79
2023/12/12 00:34:31;;;;;;;6.43;1.60;;;;;;;3.65;100.00;100895.88;5117190;28;20039;-80
2023/12/12 00:36:57;;;;;;;5.63;1.65;;;;;;;3.60;100.00;100893.53;5117472;28;20030;-80
2023/12/12 00:39:22;;;;;;;8.00;1.52;;;;;;;3.60;100.00;100892.66;5117284;28;20027;-80
2023/12/12 00:41:48;;;;;;;7.28;2.30;;;;;;;3.61;100.00;100894.34;5116982;28;20051;-79
2023/12/12 00:44:14;;;;;;;7.13;1.98;;;;;;;3.61;100.00;100887.28;5081798;28;20062;-80
2023/12/12 00:46:39;;;;;;;10.57;1.90;;;;;;;3.66;100.00;100893.16;5116623;28;20055;-80
2023/12/12 00:49:05;;;;;;;7.88;2.13;;;;;;;3.70;100.00;100878.88;5116807;28;20056;-81
2023/12/12 00:51:30;;;;;;;4.45;2.03;;;;;;;3.76;100.00;100875.00;5116889;28;20074;-80
2023/12/12 00:53:56;;;;;;;6.22;1.98;;;;;;;3.81;100.00;100872.09;5116742;28;20096;-80
2023/12/12 00:56:21;;;;;;;12.27;2.33;;;;;;;3.86;100.00;100875.28;5117360;28;20028;-81
2023/12/12 00:58:46;;;;;;;9.02;2.20;;;;;;;3.92;100.00;100871.44;5116957;28;20141;-81
2023/12/12 01:01:13;;;;;;;12.85;2.70;;;;;;;3.96;100.00;100867.69;5116494;28;20024;-81
2023/12/12 01:03:39;;;;;;;7.32;2.33;;;;;;;4.05;100.00;100867.09;5117347;28;20031;-79
2023/12/12 01:06:05;;;;;;;11.60;2.40;;;;;;;4.11;100.00;100868.50;5081352;28;20419;-80
2023/12/12 01:08:30;;;;;;;9.15;2.40;;;;;;;4.19;100.00;100872.31;5116518;28;20028;-80
2023/12/12 01:10:56;;;;;;;10.95;2.15;;;;;;;4.22;100.00;100866.03;5098330;28;20115;-80
2023/12/12 01:13:21;;;;;;;9.55;2.13;;;;;;;4.23;100.00;100870.34;5115894;28;20052;-80
2023/12/12 01:15:46;;;;;;;10.18;2.80;;;;;;;4.24;100.00;100864.16;5116298;28;20038;-80
2023/12/12 01:18:12;;;;;;;21.17;3.40;;;;;;;4.26;100.00;100861.41;5097868;28;20020;-80
2023/12/12 01:20:37;;;;;;;8.70;2.50;;;;;;;4.30;100.00;100862.88;5116220;28;20024;-80
2023/12/12 01:23:03;;;;;;;9.75;3.05;;;;;;;4.32;100.00;100861.03;5116422;28;20366;-80
2023/12/12 01:25:29;;;;;;;9.90;2.25;;;;;;;4.36;100.00;100865.13;5116313;28;20366;-80
2023/12/12 01:27:54;;;;;;;7.95;2.50;;;;;;;4.37;100.00;100854.53;5116231;28;20462;-80
2023/12/12 01:30:20;;;;;;;17.30;2.33;;;;;;;4.32;100.00;100855.75;5115986;28;20081;-80
2023/12/12 01:32:45;;;;;;;7.30;2.45;;;;;;;4.24;100.00;100841.28;5116413;28;20268;-80
2023/12/12 01:35:11;;;;;;;9.90;2.60;;;;;;;4.15;100.00;100841.88;5115569;28;20454;-80
2023/12/12 01:37:36;;;;;;;14.00;2.20;;;;;;;4.08;100.00;100845.00;5115389;28;20038;-80
2023/12/12 01:40:02;;;;;;;6.00;2.25;;;;;;;3.97;100.00;100825.44;5116458;28;20402;-80
2023/12/12 01:42:27;;;;;;;8.40;2.22;;;;;;;3.86;100.00;100827.91;5115409;28;20027;-80
2023/12/12 01:44:52;;;;;;;8.23;2.47;;;;;;;3.75;100.00;100833.84;5115621;28;20032;-80
2023/12/12 01:47:18;;;;;;;5.00;2.42;;;;;;;3.64;100.00;100829.25;5115535;28;20439;-80
2023/12/12 01:49:44;;;;;;;4.70;2.00;;;;;;;3.57;100.00;100834.97;5097246;28;20032;-81
2023/12/12 01:52:11;;;;;;;8.82;2.50;;;;;;;3.47;100.00;100837.31;5097203;28;20116;-80
2023/12/12 01:54:41;;;;;;;6.95;2.22;;;;;;;3.38;100.00;100843.16;5097823;28;20031;-81
2023/12/12 01:57:07;;;;;;;7.05;2.05;;;;;;;3.25;100.00;100841.22;5115726;28;20110;-80
2023/12/12 01:59:34;;;;;;;8.70;2.05;;;;;;;3.16;100.00;100840.03;5097384;28;20019;-81
2023/12/12 02:02:00;;;;;;;8.52;2.25;;;;;;;3.09;100.00;100840.44;5116993;28;20034;-80
2023/12/12 02:04:26;;;;;;;5.28;1.80;;;;;;;2.99;100.00;100840.16;5116427;28;20028;-81
2023/12/12 02:06:53;;;;;;;8.85;2.42;;;;;;;2.93;100.00;100827.38;5116852;28;20024;-81
2023/12/12 02:09:19;;;;;;;5.40;2.33;;;;;;;2.82;100.00;100830.63;5116118;28;20074;-81
2023/12/12 02:11:45;;;;;;;4.38;1.92;;;;;;;2.74;100.00;100836.31;5115234;28;20055;-81
2023/12/12 02:14:10;;;;;;;4.95;2.20;;;;;;;2.64;100.00;100833.41;5115274;28;20496;-81
2023/12/12 02:16:35;;;;;;;4.13;1.83;;;;;;;2.57;100.00;100836.47;5114692;28;20093;-81
2023/12/12 02:19:01;;;;;;;9.65;2.63;;;;;;;2.50;100.00;100828.06;5114941;28;20053;-81
2023/12/12 02:21:26;;;;;;;5.05;2.60;;;;;;;2.43;100.00;100827.59;5096875;28;20108;-80
2023/12/12 02:23:52;;;;;;;3.53;2.10;;;;;;;2.39;100.00;100827.81;5114984;28;20027;-81
2023/12/12 02:26:17;;;;;;;6.88;2.30;;;;;;;2.34;100.00;100828.09;5096446;28;20027;-81
2023/12/12 02:28:43;;;;;;;7.05;2.33;;;;;;;2.32;100.00;100835.22;5114900;28;20066;-81
2023/12/12 02:31:09;;;;;;;11.05;3.00;;;;;;;2.31;100.00;100824.78;5096538;28;20102;-81
2023/12/12 02:33:34;;;;;;;8.57;3.28;;;;;;;2.27;100.00;100824.13;5114562;28;20120;-81
2023/12/12 02:36:00;;;;;;;7.03;2.80;;;;;;;2.21;100.00;100819.19;5114568;28;20023;-81
2023/12/12 02:38:25;;;;;;;4.72;2.70;;;;;;;2.17;100.00;100821.16;5114199;28;20452;-81
2023/12/12 02:40:50;;;;;;;7.78;3.40;;;;;;;2.14;100.00;100818.72;5114665;28;20064;-81
2023/12/12 02:43:16;;;;;;;6.25;2.70;;;;;;;2.13;100.00;100816.16;5114763;28;20455;-81
2023/12/12 02:45:41;;;;;;;18.08;4.05;;;;;;;2.10;100.00;100815.38;5114547;28;20110;-81
2023/12/12 02:48:07;;;;;;;8.70;3.95;;;;;;;2.08;100.00;100814.63;5114526;28;20111;-81
2023/12/12 02:50:32;;;;;;;7.85;3.60;;;;;;;2.04;100.00;100817.53;5096149;28;20443;-81
2023/12/12 02:52:57;;;;;;;12.70;3.80;;;;;;;2.01;100.00;100818.53;5114920;28;20518;-80
2023/12/12 02:55:22;;;;;;;10.20;4.20;;;;;;;1.98;100.00;100818.69;5113461;28;20466;-80
2023/12/12 02:57:48;;;;;;;13.18;3.80;;;;;;;1.99;100.00;100817.78;5113862;28;20102;-81
2023/12/12 03:00:14;;;;;;;10.38;4.03;;;;;;;1.97;100.00;100816.16;5114618;28;20096;-80
2023/12/12 03:02:39;;;;;;;7.05;3.75;;;;;;;1.93;100.00;100808.47;5114412;28;20034;-79
2023/12/12 03:05:05;;;;;;;11.98;5.13;;;;;;;1.96;100.00;100809.22;5114145;28;20027;-80
2023/12/12 03:07:30;;;;;;;9.18;4.10;;;;;;;1.95;100.00;100808.38;5113918;28;20028;-79
2023/12/12 03:09:55;;;;;;;11.65;4.85;;;;;;;1.96;100.00;100810.06;5113895;28;20035;-79
2023/12/12 03:12:21;;;;;;;10.70;5.72;;;;;;;1.98;100.00;100807.38;5113808;28;20024;-80
2023/12/12 03:14:46;;;;;;;9.48;5.07;;;;;;;1.98;100.00;100810.00;5113714;28;20041;-80
2023/12/12 03:17:12;;;;;;;13.38;5.53;;;;;;;2.00;100.00;100800.25;5113844;28;20031;-80
2023/12/12 03:19:37;;;;;;;12.25;5.47;;;;;;;2.01;100.00;100802.78;5113486;28;20066;-80
2023/12/12 03:22:03;;;;;;;20.95;6.43;;;;;;;2.02;100.00;100801.03;5113779;28;20023;-80
2023/12/12 03:24:28;;;;;;;13.13;7.05;;;;;;;2.04;100.00;100801.78;5113830;28;20104;-80
2023/12/12 03:26:54;;;;;;;13.38;6.20;;;;;;;2.01;100.00;100794.06;5113906;28;20045;-80
2023/12/12 03:29:19;;;;;;;28.08;6.72;;;;;;;1.99;100.00;100790.69;5113662;28;20111;-80
2023/12/12 03:31:45;;;;;;;20.63;6.95;;;;;;;1.97;100.00;100805.66;5113712;28;20035;-81
2023/12/12 03:34:10;;;;;;;16.92;6.10;;;;;;;1.92;100.00;100798.88;5095339;28;20078;-80
2023/12/12 03:36:35;;;;;;;25.23;8.18;;;;;;;1.95;100.00;100792.63;5113411;28;20238;-81
2023/12/12 03:39:02;;;;;;;21.30;8.32;;;;;;;2.00;100.00;100792.38;5113203;28;20113;-80
2023/12/12 03:41:29;;;;;;;16.02;7.32;;;;;;;2.02;100.00;100788.75;5094840;28;20034;-80
2023/12/12 03:43:54;;;;;;;25.55;9.32;;;;;;;2.05;100.00;100788.56;5113353;28;20034;-80
2023/12/12 03:46:20;;;;;;;35.25;11.13;;;;;;;2.11;100.00;100784.75;5113700;28;20027;-79
2023/12/12 03:48:46;;;;;;;20.20;8.30;;;;;;;2.17;100.00;100787.03;5113567;28;20434;-80
2023/12/12 03:51:12;;;;;;;29.77;10.27;;;;;;;2.25;100.00;100783.97;5113431;28;20057;-80
2023/12/12 03:53:39;;;;;;;20.33;10.10;;;;;;;2.28;100.00;100776.78;5095591;28;20114;-80
2023/12/12 03:56:05;;;;;;;22.27;8.93;;;;;;;2.29;100.00;100770.59;5113081;28;20016;-80
2023/12/12 03:58:30;;;;;;;20.35;8.95;;;;;;;2.31;100.00;100770.50;5113175;28;20035;-80
2023/12/12 04:00:56;;;;;;;28.52;10.13;;;;;;;2.36;100.00;100770.22;5113375;28;20028;-80
2023/12/12 04:03:21;;;;;;;24.42;9.60;;;;;;;2.35;100.00;100758.88;5113511;28;20034;-79
2023/12/12 04:05:47;;;;;;;26.48;11.40;;;;;;;2.34;100.00;100745.84;5113103;28;20028;-80
2023/12/12 04:08:12;;;;;;;21.70;10.68;;;;;;;2.35;100.00;100748.38;5114101;28;20039;-80
2023/12/12 04:10:37;;;;;;;24.88;9.90;;;;;;;2.36;100.00;100741.34;5095430;28;20405;-80
2023/12/12 04:13:03;;;;;;;28.77;11.07;;;;;;;2.33;100.00;100734.50;5095210;28;20028;-80
2023/12/12 04:15:28;;;;;;;31.77;10.75;;;;;;;2.28;100.00;100737.41;5113164;28;20020;-80
2023/12/12 04:17:54;;;;;;;22.08;9.90;;;;;;;2.23;100.00;100733.34;5113254;28;20113;-80
2023/12/12 04:20:19;;;;;;;26.67;9.88;;;;;;;2.21;100.00;100722.06;5112953;28;20352;-80
2023/12/12 04:22:44;;;;;;;18.98;10.13;;;;;;;2.23;100.00;100728.09;5095074;28;20020;-80
2023/12/12 04:25:13;;;;;;;27.20;10.88;;;;;;;2.29;100.00;100717.22;5113641;28;20524;-80
2023/12/12 04:27:39;;;;;;;22.67;10.30;;;;;;;2.34;100.00;100719.59;5112986;28;20074;-81
2023/12/12 04:30:05;;;;;;;27.50;11.23;;;;;;;2.40;100.00;100720.06;5113184;28;20051;-80
2023/12/12 04:32:33;;;;;;;27.42;11.88;;;;;;;2.46;100.00;100714.47;5094590;28;20079;-80
2023/12/12 04:34:59;;;;;;;25.00;11.52;;;;;;;2.56;100.00;100724.44;5113198;28;20114;-81
2023/12/12 04:37:25;;;;;;;31.88;13.20;;;;;;;2.62;100.00;100724.91;5112522;28;20027;-80
2023/12/12 04:39:50;;;;;;;28.15;12.82;;;;;;;2.67;100.00;100721.16;5094294;28;20035;-80
2023/12/12 04:42:15;;;;;;;35.58;13.73;;;;;;;2.70;100.00;100721.81;5112233;28;20024;-80
2023/12/12 04:44:41;;;;;;;29.45;13.70;;;;;;;2.74;100.00;100725.97;5112621;28;20444;-80
2023/12/12 04:47:07;;;;;;;29.90;13.05;;;;;;;2.80;100.00;100727.38;5112760;28;20062;-81
2023/12/12 04:49:33;;;;;;;44.63;15.27;;;;;;;2.85;100.00;100719.22;5112775;28;20436;-80
2023/12/12 04:51:58;;;;;;;39.55;15.68;;;;;;;2.91;100.00;100713.59;5112796;28;20035;-81
2023/12/12 04:54:24;;;;;;;36.63;16.10;;;;;;;2.96;100.00;100720.28;5112868;28;20172;-81
2023/12/12 04:56:49;;;;;;;49.38;16.30;;;;;;;3.00;100.00;100719.16;5113014;28;20348;-81
2023/12/12 04:59:14;;;;;;;48.38;15.88;;;;;;;3.06;100.00;100709.19;5112725;28;20455;-80
2023/12/12 05:01:40;;;;;;;36.15;14.73;;;;;;;3.09;100.00;100715.13;5094472;28;20474;-80
2023/12/12 05:04:06;;;;;;;35.55;14.32;;;;;;;3.13;100.00;100716.59;5113324;28;20371;-80
2023/12/12 05:06:32;;;;;;;38.25;16.25;;;;;;;3.16;100.00;100719.06;5113159;28;20028;-80
2023/12/12 05:08:57;;;;;;;43.17;16.20;;;;;;;3.22;100.00;100712.56;5112558;28;20030;-81
2023/12/12 05:11:22;;;;;;;36.30;15.07;;;;;;;3.26;100.00;100714.06;5112668;28;20367;-81
2023/12/12 05:13:48;;;;;;;41.53;15.15;;;;;;;3.30;100.00;100720.84;5112655;28;20024;-81
2023/12/12 05:16:13;;;;;;;46.80;17.45;;;;;;;3.35;100.00;100718.75;5112313;28;20066;-81
2023/12/12 05:18:39;;;;;;;46.58;17.50;;;;;;;3.38;100.00;100706.38;5096314;28;20023;-81
2023/12/12 05:21:04;;;;;;;33.42;14.82;;;;;;;3.41;100.00;100704.38;5116619;28;20394;-81
2023/12/12 05:23:30;;;;;;;40.33;15.52;;;;;;;3.46;100.00;100710.22;5116573;28;20027;-81
2023/12/12 05:25:55;;;;;;;43.95;15.52;;;;;;;3.47;100.00;100704.00;5116180;28;20032;-81
2023/12/12 05:28:21;;;;;;;42.00;15.82;;;;;;;3.50;100.00;100706.44;5116134;28;20127;-80
2023/12/12 05:30:47;;;;;;;39.67;16.52;;;;;;;3.55;100.00;100703.50;5116086;28;20362;-81
2023/12/12 05:33:15;;;;;;;50.13;16.92;;;;;;;3.55;100.00;100703.50;5116519;28;20399;-81
2023/12/12 05:35:40;;;;;;;49.58;17.73;;;;;;;3.60;100.00;100704.06;5097323;28;20068;-81
2023/12/12 05:38:06;;;;;;;45.92;16.15;;;;;;;3.63;100.00;100701.25;5115484;28;20089;-81
2023/12/12 05:40:32;;;;;;;48.38;16.92;;;;;;;3.68;100.00;100699.16;5115547;28;20020;-80
2023/12/12 05:42:58;;;;;;;40.47;16.67;;;;;;;3.73;100.00;100692.75;5097393;28;20023;-81
2023/12/12 05:45:24;;;;;;;43.67;15.98;;;;;;;3.77;100.00;100689.00;5116102;28;20336;-80
2023/12/12 05:47:49;;;;;;;54.10;18.13;;;;;;;3.81;100.00;100690.50;5115918;28;20024;-81
2023/12/12 05:50:15;;;;;;;45.25;18.05;;;;;;;3.86;100.00;100689.22;5115707;28;20047;-81
2023/12/12 05:52:40;;;;;;;50.00;18.85;;;;;;;3.89;100.00;100688.19;5115820;28;20105;-81
2023/12/12 05:55:06;;;;;;;50.97;19.05;;;;;;;3.89;100.00;100681.13;5115887;28;20058;-81
2023/12/12 05:57:32;;;;;;;56.60;17.75;;;;;;;3.91;100.00;100680.19;5115044;28;20035;-81
2023/12/12 05:59:59;;;;;;;49.05;18.73;;;;;;;3.92;100.00;100674.81;5116284;28;20332;-81
2023/12/12 06:02:24;;;;;;;58.53;19.42;;;;;;;3.92;100.00;100663.47;5115646;28;20055;-81
2023/12/12 06:04:49;;;;;;;54.65;19.00;;;;;;;3.94;100.00;100670.31;5115200;28;20062;-82
2023/12/12 06:07:15;;;;;;;59.97;19.02;;;;;;;3.97;100.00;100669.25;5115661;28;20027;-80
2023/12/12 06:09:41;;;;;;;68.03;20.92;;;;;;;4.01;100.00;100671.59;5115701;28;20031;-81
2023/12/12 06:12:07;;;;;;;63.58;20.17;;;;;;;4.05;100.00;100661.72;5115389;28;20456;-81
2023/12/12 06:14:32;;;;;;;58.70;19.98;;;;;;;4.08;100.00;100658.88;5115707;28;20051;-80
2023/12/12 06:16:58;;;;;;;61.05;20.58;;;;;;;4.11;100.00;100656.03;5115514;28;20359;-81
2023/12/12 06:19:24;;;;;;;70.93;22.48;;;;;;;4.14;100.00;100647.94;5115133;28;20028;-81
2023/12/12 06:21:53;;;;;;;58.25;21.95;;;;;;;4.20;100.00;100651.94;5114708;28;20416;-81
2023/12/12 06:24:19;;;;;;;62.65;20.50;;;;;;;4.26;100.00;100646.28;5114982;28;20027;-81
2023/12/12 06:26:45;;;;;;;73.85;25.10;;;;;;;4.36;100.00;100649.09;5114642;28;20034;-81
2023/12/12 06:29:13;;;;;;;72.45;24.35;;;;;;;4.41;100.00;100641.75;5114915;28;20447;-81
2023/12/12 06:31:39;;;;;;;66.18;23.52;;;;;;;4.48;100.00;100644.81;5114464;28;20464;-80
2023/12/12 06:34:04;;;;;;;69.45;23.50;;;;;;;4.54;100.00;100639.16;5115003;28;20073;-80
2023/12/12 06:36:30;;;;;;;66.07;22.83;;;;;;;4.58;100.00;100646.72;5114275;28;20119;-80
2023/12/12 06:38:55;;;;;;;75.20;24.98;;;;;;;4.64;100.00;100640.16;5114345;28;20043;-81
2023/12/12 06:41:20;;;;;;;62.50;22.95;;;;;;;4.67;100.00;100633.84;5095877;28;20415;-79
2023/12/12 06:43:46;;;;;;;59.45;22.77;;;;;;;4.68;100.00;100639.03;5114050;28;20040;-82
2023/12/12 06:46:11;;;;;;;72.25;22.40;;;;;;;4.72;100.00;100626.50;5114200;28;20020;-80
2023/12/12 06:48:37;;;;;;;67.85;22.55;;;;;;;4.75;100.00;100631.53;5114119;28;20044;-81
2023/12/12 06:51:06;;;;;;;58.75;23.23;;;;;;;4.79;100.00;100616.34;5114189;28;20388;-81
2023/12/12 06:53:32;;;;;;;71.72;23.23;;;;;;;4.82;100.00;100619.63;5114162;28;20031;-81
2023/12/12 06:55:57;;;;;;;76.57;23.63;;;;;;;4.83;100.00;100612.56;5095887;28;20023;-82
2023/12/12 06:58:24;;;;;;;81.30;23.73;;;;;;;4.87;100.00;100620.13;5114067;28;20124;-81
2023/12/12 07:00:49;;;;;;;76.32;22.40;;;;;;;4.93;100.00;100619.69;5096260;28;20163;-78
2023/12/12 07:03:15;;;;;;;92.80;25.40;;;;;;;4.97;100.00;100608.94;5114297;28;20115;-84
2023/12/12 07:05:40;;;;;;;73.15;24.58;;;;;;;5.00;100.00;100611.34;5114733;28;20124;-81
2023/12/12 07:08:06;;;;;;;88.68;24.45;;;;;;;5.05;100.00;100609.25;5115624;28;20027;-81
2023/12/12 07:10:32;;;;;;;68.32;23.35;;;;;;;5.08;100.00;100614.31;5114945;28;20470;-83
2023/12/12 07:12:59;;;;;;;64.68;23.80;;;;;;;5.16;100.00;100613.75;5114317;28;20028;-83
2023/12/12 07:15:26;;;;;;;74.55;24.27;;;;;;;5.20;100.00;100618.69;5114832;28;20047;-82
2023/12/12 07:17:51;;;;;;;73.00;23.98;;;;;;;5.22;100.00;100614.13;5114468;28;20020;-81
2023/12/12 07:20:17;;;;;;;65.38;23.13;;;;;;;5.25;100.00;100621.00;5114479;28;20360;-82
2023/12/12 07:22:43;;;;;;;73.50;23.80;;;;;;;5.28;100.00;100621.66;5114195;28;20375;-82
2023/12/12 07:25:08;;;;;;;81.28;25.05;;;;;;;5.30;100.00;100608.34;5114401;28;20102;-83
2023/12/12 07:27:34;;;;;;;69.63;24.35;;;;;;;5.33;100.00;100612.53;5113778;28;20059;-82
2023/12/12 07:29:59;;;;;;;63.92;23.73;;;;;;;5.34;100.00;100609.78;5095563;28;20459;-81
2023/12/12 07:32:26;;;;;;;71.82;24.63;;;;;;;5.36;100.00;100604.38;5114370;28;20024;-81
2023/12/12 07:34:52;;;;;;;62.53;23.08;;;;;;;5.37;100.00;100599.00;5113998;28;20423;-81
2023/12/12 07:37:17;;;;;;;57.88;24.67;;;;;;;5.38;100.00;100581.41;5114230;28;20137;-82
2023/12/12 07:39:43;;;;;;;58.85;23.00;;;;;;;5.37;100.00;100583.16;5114280;28;20031;-81
2023/12/12 07:42:08;;;;;;;75.07;23.60;;;;;;;5.37;100.00;100580.53;5113700;28;20304;-81
2023/12/12 07:44:33;;;;;;;80.57;24.63;;;;;;;5.38;100.00;100578.75;5114014;28;20102;-82
2023/12/12 07:47:02;;;;;;;70.53;24.55;;;;;;;5.39;100.00;100577.78;5113705;28;20027;-81
2023/12/12 07:49:28;;;;;;;66.68;24.92;;;;;;;5.41;100.00;100571.44;5113886;28;20072;-80
2023/12/12 07:51:54;;;;;;;86.18;25.85;;;;;;;5.42;100.00;100569.63;5113856;28;20474;-83
2023/12/12 07:54:20;;;;;;;71.78;25.20;;;;;;;5.45;100.00;100561.53;5113407;28;20028;-81
2023/12/12 07:56:45;;;;;;;82.45;25.67;;;;;;;5.47;100.00;100560.44;5095655;28;20412;-81
2023/12/12 07:59:11;;;;;;;84.95;25.75;;;;;;;5.49;100.00;100549.78;5113475;28;20035;-81
2023/12/12 08:01:37;;;;;;;69.57;25.15;;;;;;;5.53;100.00;100553.03;5114143;28;20108;-81
2023/12/12 08:04:04;;;;;;;66.80;22.95;;;;;;;5.55;100.00;100546.66;5113704;28;20019;-81
2023/12/12 08:06:30;;;;;;;59.15;23.40;;;;;;;5.59;100.00;100550.78;5079350;28;20055;-81
2023/12/12 08:08:56;;;;;;;72.80;24.20;;;;;;;5.62;100.00;100549.72;5113264;28;20035;-81
2023/12/12 08:11:24;;;;;;;77.25;23.95;;;;;;;5.64;100.00;100542.50;5113547;28;20019;-81
2023/12/12 08:13:50;;;;;;;68.15;23.75;;;;;;;5.69;100.00;100543.03;5113683;28;20019;-78
2023/12/12 08:16:15;;;;;;;68.80;22.45;;;;;;;5.73;100.00;100538.34;5094834;28;20055;-81
2023/12/12 08:18:41;;;;;;;66.85;23.25;;;;;;;5.74;100.00;100529.47;5113263;28;20036;-81
2023/12/12 08:21:09;;;;;;;75.20;22.67;;;;;;;5.78;100.00;100523.84;5113108;28;20100;-83
2023/12/12 08:23:37;;;;;;;75.90;23.08;;;;;;;5.82;100.00;100527.09;5095070;28;20022;-85
2023/12/12 08:26:03;;;;;;;76.63;22.00;;;;;;;5.85;100.00;100515.47;5113305;28;20024;-83
2023/12/12 08:28:28;;;;;;;69.25;22.27;;;;;;;5.89;100.00;100515.09;5113263;28;20048;-84
2023/12/12 08:30:53;;;;;;;69.32;21.70;;;;;;;5.93;100.00;100518.38;5113274;28;20019;-82
2023/12/12 08:33:20;;;;;;;63.67;21.95;;;;;;;5.96;100.00;100521.59;5113600;28;20102;-86
2023/12/12 08:35:45;;;;;;;70.97;21.95;;;;;;;6.02;100.00;100514.19;5113132;28;20099;-82
2023/12/12 08:38:11;;;;;;;88.65;23.83;;;;;;;6.06;100.00;100505.94;5113367;28;20031;-83
2023/12/12 08:40:37;;;;;;;82.82;23.33;;;;;;;6.11;100.00;100500.31;5112937;28;20114;-84
2023/12/12 08:43:02;;;;;;;96.88;23.98;;;;;;;6.15;100.00;100494.66;5113133;28;20058;-87
2023/12/12 08:45:29;;;;;;;83.32;23.73;;;;;;;6.21;100.00;100496.00;5113421;28;20077;-84
2023/12/12 08:47:54;;;;;;;89.72;22.85;;;;;;;6.24;100.00;100498.41;5112968;28;20028;-82
2023/12/12 08:50:20;;;;;;;76.43;23.00;;;;;;;6.28;100.00;100504.28;5094660;28;20058;-83
2023/12/12 08:52:46;;;;;;;67.95;21.23;;;;;;;6.30;100.00;100503.19;5114059;28;20405;-83
2023/12/12 08:55:11;;;;;;;72.43;22.23;;;;;;;6.34;100.00;100507.28;5117026;28;20067;-80
2023/12/12 08:57:37;;;;;;;67.32;21.55;;;;;;;6.39;100.00;100498.13;5116509;28;20088;-80
2023/12/12 09:00:03;;;;;;;83.25;22.52;;;;;;;6.44;100.00;100499.47;5116830;28;20020;-80
2023/12/12 09:02:29;;;;;;;67.53;21.73;;;;;;;6.47;100.00;100501.03;5116837;28;20034;-81
2023/12/12 09:04:55;;;;;;;62.88;20.02;;;;;;;6.48;100.00;100503.56;5116750;28;20019;-81
2023/12/12 09:07:20;;;;;;;56.22;20.30;;;;;;;6.51;100.00;100505.13;5116883;28;20020;-82
2023/12/12 09:09:45;;;;;;;58.40;19.50;;;;;;;6.55;100.00;100501.25;5117084;28;20032;-81
2023/12/12 09:12:11;;;;;;;69.80;18.95;;;;;;;6.55;100.00;100503.91;5098391;28;20512;-81
2023/12/12 09:14:36;;;;;;;67.97;19.90;;;;;;;6.58;100.00;100500.19;5116501;28;20082;-81
2023/12/12 09:17:02;;;;;;;61.65;19.95;;;;;;;6.58;100.00;100493.09;5116192;28;20032;-80
2023/12/12 09:19:27;;;;;;;66.90;19.60;;;;;;;6.59;100.00;100491.28;5116618;28;20046;-82
2023/12/12 09:21:54;;;;;;;75.22;21.33;;;;;;;6.58;100.00;100485.16;5117061;28;20024;-83
2023/12/12 09:24:20;;;;;;;81.93;20.30;;;;;;;6.63;100.00;100472.44;5116737;28;20023;-83
2023/12/12 09:26:46;;;;;;;74.30;21.15;;;;;;;6.67;100.00;100470.34;5116376;28;20511;-81
2023/12/12 09:29:11;;;;;;;75.20;20.45;;;;;;;6.74;100.00;100460.97;5116119;28;20126;-80
2023/12/12 09:31:37;;;;;;;60.85;19.80;;;;;;;6.80;100.00;100460.47;5081030;28;20124;-82
2023/12/12 09:34:02;;;;;;;66.13;20.63;;;;;;;6.87;100.00;100455.56;5116227;28;20023;-81
2023/12/12 09:36:27;;;;;;;73.25;19.92;;;;;;;6.92;100.00;100456.00;5116333;28;20378;-82
2023/12/12 09:38:53;;;;;;;64.72;19.80;;;;;;;6.97;100.00;100448.56;5116059;28;20456;-81
2023/12/12 09:41:23;;;;;;;56.72;18.73;;;;;;;7.05;100.00;100434.69;5116317;28;20031;-82
2023/12/12 09:43:50;;;;;;;69.15;18.10;;;;;;;7.08;100.00;100437.09;5118682;28;20027;-79
2023/12/12 09:46:16;;;;;;;54.25;17.70;;;;;;;7.10;100.00;100429.84;5118844;28;20027;-85
2023/12/12 09:48:43;;;;;;;60.72;18.33;;;;;;;7.13;100.00;100426.94;5119207;28;20027;-83
2023/12/12 09:51:12;;;;;;;54.88;17.27;;;;;;;7.16;100.00;100426.69;5116762;28;20019;-82
2023/12/12 09:53:40;;;;;;;46.55;15.57;;;;;;;7.17;100.00;100416.97;5098044;28;20031;-83
2023/12/12 09:56:08;;;;;;;58.05;15.10;;;;;;;7.21;100.00;100413.06;5097999;28;20038;-82
2023/12/12 09:58:33;;;;;;;52.47;15.38;;;;;;;7.23;100.00;100414.63;5115905;28;20075;-84
2023/12/12 10:01:02;;;;;;;55.38;14.70;;;;;;;7.28;100.00;100408.13;5115691;28;20465;-82
2023/12/12 10:03:28;;;;;;;54.63;15.50;;;;;;;7.32;100.00;100409.56;5114871;28;20023;-84
2023/12/12 10:05:56;;;;;;;42.30;13.52;;;;;;;7.36;100.00;100403.88;5115968;28;20023;-84
2023/12/12 10:08:23;;;;;;;47.20;12.70;;;;;;;7.42;100.00;100394.59;5115473;28;20397;-81
2023/12/12 10:10:52;;;;;;;45.38;13.73;;;;;;;7.47;100.00;100394.19;5115402;28;20024;-83
2023/12/12 10:13:18;;;;;;;45.22;14.27;;;;;;;7.46;100.00;100381.91;5115806;28;20092;-83
2023/12/12 10:15:44;;;;;;;45.03;13.25;;;;;;;7.51;100.00;100385.00;5115700;28;20038;-83
2023/12/12 10:18:10;;;;;;;45.78;12.75;;;;;;;7.55;100.00;100378.47;5116170;28;20206;-83
2023/12/12 10:20:35;;;;;;;43.47;13.32;;;;;;;7.54;100.00;100375.00;5116164;28;20026;-83
2023/12/12 10:23:02;;;;;;;54.65;13.48;;;;;;;7.55;100.00;100362.59;5116715;28;20118;-85
2023/12/12 10:25:29;;;;;;;43.13;13.57;;;;;;;7.59;100.00;100378.09;5115752;28;20028;-83
2023/12/12 10:27:56;;;;;;;43.65;14.40;;;;;;;7.60;100.00;100371.00;5115518;28;20024;-84
2023/12/12 10:30:22;;;;;;;48.33;14.75;;;;;;;7.61;100.00;100366.53;5116323;28;20108;-84
2023/12/12 10:32:52;;;;;;;47.38;13.73;;;;;;;7.65;100.00;100362.66;5097696;28;20028;-85
2023/12/12 10:35:21;;;;;;;37.30;13.35;;;;;;;7.70;100.00;100347.19;5116361;28;20032;-82
2023/12/12 10:37:48;;;;;;;35.03;14.32;;;;;;;7.75;100.00;100342.38;5115600;28;20447;-81
2023/12/12 10:40:18;;;;;;;33.72;13.43;;;;;;;7.79;100.00;100335.81;5097616;28;20039;-83
2023/12/12 10:42:44;;;;;;;40.10;13.60;;;;;;;7.81;100.00;100338.31;5115307;28;20049;-83
2023/12/12 10:45:12;;;;;;;41.78;14.32;;;;;;;7.84;100.00;100333.63;5115052;28;20167;-81
2023/12/12 10:47:41;;;;;;;44.38;13.77;;;;;;;7.92;100.00;100330.28;5115319;28;20072;-82
2023/12/12 10:50:10;;;;;;;42.53;13.95;;;;;;;7.95;100.00;100322.06;5115832;28;20122;-82
2023/12/12 10:52:36;;;;;;;39.13;12.85;;;;;;;7.97;100.00;100317.47;5115025;28;20051;-82
2023/12/12 10:55:02;;;;;;;36.47;13.45;;;;;;;8.00;100.00;100316.38;5115292;28;20023;-85
2023/12/12 10:57:29;;;;;;;40.45;13.80;;;;;;;8.01;100.00;100312.75;5115471;28;20035;-83
2023/12/12 10:59:56;;;;;;;33.45;14.45;;;;;;;7.95;100.00;100304.34;5115665;28;20069;-83
2023/12/12 11:02:23;;;;;;;36.60;14.25;;;;;;;7.98;100.00;100300.59;5115561;28;20027;-82
2023/12/12 11:04:49;;;;;;;46.38;14.95;;;;;;;7.99;100.00;100290.88;5115260;28;20047;-81
2023/12/12 11:07:15;;;;;;;38.85;15.63;;;;;;;8.03;100.00;100279.00;5115058;28;20023;-85